Time;durP1;ratioP1;P1;durP2;ratioP2;P2;SDS_P1;SDS_P2;PMS_P1;PMS_P2;Temp;Humidity;BMP_temperature;BMP_pressure;BME280_temperature;BME280_humidity;BME280_pressure;Samples;Min_cycle;Max_cycle;Signal;HPM_P1;HPM_P2
2021/06/23 00:00:53;;;;;;;;;7.67;7.00;;;;;;;;3529347;39;113524;-75
2021/06/23 00:03:20;;;;;;;;;6.33;5.67;;;;;;;;3527206;39;113893;-76
2021/06/23 00:05:46;;;;;;;;;7.67;6.67;;;;;;;;3529990;39;111763;-75
2021/06/23 00:08:13;;;;;;;;;9.33;6.00;;;;;;;;3532106;39;114322;-75
2021/06/23 00:10:39;;;;;;;;;7.33;6.00;;;;;;;;3536202;39;113932;-76
2021/06/23 00:13:08;;;;;;;;;6.00;5.33;;;;;;;;3534139;39;113226;-75
2021/06/23 00:15:36;;;;;;;;;8.00;5.67;;;;;;;;3533612;39;113815;-75
2021/06/23 00:18:04;;;;;;;;;5.00;5.00;;;;;;;;3533991;39;112011;-75
2021/06/23 00:20:31;;;;;;;;;5.33;5.00;;;;;;;;3534114;39;113233;-76
2021/06/23 00:22:58;;;;;;;;;6.00;5.33;;;;;;;;3528416;39;113062;-75
2021/06/23 00:25:24;;;;;;;;;6.33;6.33;;;;;;;;3529334;39;112048;-75
2021/06/23 00:27:51;;;;;;;;;6.00;6.00;;;;;;;;3527859;39;112276;-75
2021/06/23 00:30:18;;;;;;;;;10.00;8.00;;;;;;;;3529384;39;114002;-75
2021/06/23 00:32:47;;;;;;;;;4.00;3.00;;;;;;;;3530695;39;114258;-74
2021/06/23 00:35:14;;;;;;;;;6.67;6.67;;;;;;;;3531694;39;113847;-75
2021/06/23 00:37:41;;;;;;;;;12.67;8.00;;;;;;;;3533720;39;111888;-76
2021/06/23 00:40:09;;;;;;;;;6.00;6.00;;;;;;;;3534105;39;113787;-76
2021/06/23 00:42:36;;;;;;;;;6.67;6.00;;;;;;;;3533599;39;113857;-76
2021/06/23 00:45:03;;;;;;;;;5.00;5.00;;;;;;;;3533878;39;111957;-75
2021/06/23 00:47:30;;;;;;;;;7.33;6.33;;;;;;;;3533896;39;113963;-75
2021/06/23 00:49:59;;;;;;;;;6.67;6.67;;;;;;;;3533388;39;114167;-75
2021/06/23 00:52:25;;;;;;;;;6.67;6.67;;;;;;;;3529527;39;111994;-75
2021/06/23 00:54:53;;;;;;;;;8.33;6.67;;;;;;;;3531413;39;113280;-75
2021/06/23 00:57:20;;;;;;;;;9.00;7.67;;;;;;;;3528121;39;111819;-75
2021/06/23 00:59:50;;;;;;;;;6.33;6.33;;;;;;;;3533735;39;113289;-75
2021/06/23 01:02:19;;;;;;;;;7.67;6.33;;;;;;;;3531716;39;113862;-74
2021/06/23 01:04:46;;;;;;;;;7.67;7.67;;;;;;;;3529988;39;112038;-75
2021/06/23 01:07:15;;;;;;;;;10.00;6.67;;;;;;;;3533783;39;113317;-75
2021/06/23 01:09:42;;;;;;;;;9.00;8.00;;;;;;;;3529285;39;114361;-73
2021/06/23 01:12:16;;;;;;;;;6.67;6.67;;;;;;;;3528095;39;112036;-74
2021/06/23 01:14:43;;;;;;;;;5.67;5.00;;;;;;;;3531424;39;113156;-74
2021/06/23 01:17:10;;;;;;;;;9.00;8.00;;;;;;;;3536019;39;113915;-74
2021/06/23 01:19:38;;;;;;;;;8.00;7.00;;;;;;;;3531506;39;113278;-74
2021/06/23 01:22:06;;;;;;;;;6.00;6.00;;;;;;;;3527896;39;113998;-74
2021/06/23 01:24:33;;;;;;;;;8.00;6.00;;;;;;;;3528875;39;111740;-74
2021/06/23 01:26:59;;;;;;;;;7.33;7.00;;;;;;;;3528628;39;113251;-74
2021/06/23 01:29:26;;;;;;;;;8.33;7.33;;;;;;;;3527964;39;114148;-74
2021/06/23 01:31:53;;;;;;;;;6.00;6.00;;;;;;;;3530169;39;111917;-74
2021/06/23 01:34:19;;;;;;;;;8.00;7.00;;;;;;;;3533594;39;113930;-74
2021/06/23 01:36:46;;;;;;;;;7.00;7.00;;;;;;;;3532774;39;113047;-74
2021/06/23 01:39:14;;;;;;;;;8.00;8.00;;;;;;;;3532240;39;112161;-74
2021/06/23 01:41:40;;;;;;;;;4.50;4.50;;;;;;;;3532887;39;113825;-74
2021/06/23 01:44:07;;;;;;;;;7.00;7.00;;;;;;;;3533401;39;112229;-74
2021/06/23 09:06:58;;;;;;;;;10.00;8.67;;;;;;;;3537295;39;1414252;-80
2021/06/23 09:09:27;;;;;;;;;8.67;7.00;;;;;;;;3566238;39;114106;-77
2021/06/23 09:11:54;;;;;;;;;8.67;8.67;;;;;;;;3566338;39;112010;-79
2021/06/23 09:14:21;;;;;;;;;9.00;7.00;;;;;;;;3567077;39;113237;-77
2021/06/23 09:17:07;;;;;;;;;8.67;7.67;;;;;;;;3565372;39;113908;-78
2021/06/23 09:19:35;;;;;;;;;7.33;7.33;;;;;;;;3565836;39;112494;-77
2021/06/23 09:22:03;;;;;;;;;7.00;7.00;;;;;;;;3566926;39;113128;-77
2021/06/23 09:24:37;;;;;;;;;2.33;2.33;;;;;;;;3565684;39;113992;-76
2021/06/23 09:27:18;;;;;;;;;8.67;7.00;;;;;;;;3569596;39;112367;-76
2021/06/23 09:29:45;;;;;;;;;8.33;8.33;;;;;;;;3564926;39;114051;-78
2021/06/23 09:32:11;;;;;;;;;7.33;6.67;;;;;;;;3567334;39;111824;-74
2021/06/23 09:34:39;;;;;;;;;8.67;8.33;;;;;;;;3565622;39;113202;-73
2021/06/23 09:37:21;;;;;;;;;7.00;7.00;;;;;;;;3566662;39;113952;-74
2021/06/23 09:39:49;;;;;;;;;8.33;8.33;;;;;;;;3565482;39;111809;-79
2021/06/23 09:42:15;;;;;;;;;9.33;8.00;;;;;;;;3567273;39;113280;-79
2021/06/23 09:44:46;;;;;;;;;8.00;8.00;;;;;;;;3565138;39;113952;-77
2021/06/23 09:47:12;;;;;;;;;9.33;8.33;;;;;;;;3564993;39;112205;-79
2021/06/23 09:49:42;;;;;;;;;9.67;9.00;;;;;;;;3549450;39;113134;-76
2021/06/23 09:52:11;;;;;;;;;12.33;9.00;;;;;;;;3548883;39;111934;-76
2021/06/23 09:54:48;;;;;;;;;11.00;8.67;;;;;;;;3546492;39;114079;-78
2021/06/23 09:57:17;;;;;;;;;11.33;9.00;;;;;;;;3544947;39;113825;-78
2021/06/23 09:59:47;;;;;;;;;10.33;9.33;;;;;;;;3543876;39;111822;-76
2021/06/23 10:02:24;;;;;;;;;13.67;10.67;;;;;;;;3545121;39;113631;-79
2021/06/23 10:04:50;;;;;;;;;10.00;10.00;;;;;;;;3544763;39;113960;-76
2021/06/23 10:07:31;;;;;;;;;8.33;8.33;;;;;;;;3546695;39;112257;-76
2021/06/23 10:09:58;;;;;;;;;10.00;7.67;;;;;;;;3545739;39;113425;-76
2021/06/23 10:12:26;;;;;;;;;6.67;6.67;;;;;;;;3548149;39;114509;-74
2021/06/23 10:14:53;;;;;;;;;13.00;10.33;;;;;;;;3545507;39;113192;-74
2021/06/23 10:17:20;;;;;;;;;35.33;30.33;;;;;;;;3541779;39;114002;-74
2021/06/23 10:19:46;;;;;;;;;18.33;17.00;;;;;;;;3538390;39;112268;-76
2021/06/23 10:22:22;;;;;;;;;10.67;9.00;;;;;;;;3540027;39;113961;-73
2021/06/23 10:24:50;;;;;;;;;8.33;8.00;;;;;;;;3538003;39;113413;-76
2021/06/23 10:27:18;;;;;;;;;10.00;7.00;;;;;;;;3540678;39;112268;-73
2021/06/23 10:29:46;;;;;;;;;8.00;8.00;;;;;;;;3538158;39;113378;-74
2021/06/23 10:32:13;;;;;;;;;8.67;6.67;;;;;;;;3539699;39;113882;-74
2021/06/23 10:34:43;;;;;;;;;10.00;7.00;;;;;;;;3540829;39;112006;-74
2021/06/23 10:37:09;;;;;;;;;7.67;7.00;;;;;;;;3537414;39;113486;-72
2021/06/23 10:39:37;;;;;;;;;9.00;7.00;;;;;;;;3538179;39;111897;-75
2021/06/23 10:42:05;;;;;;;;;7.00;7.00;;;;;;;;3539701;39;113185;-74
2021/06/23 10:44:35;;;;;;;;;8.67;7.67;;;;;;;;3538173;39;114121;-75
2021/06/23 10:47:05;;;;;;;;;8.00;6.00;;;;;;;;3539601;39;111929;-74
2021/06/23 10:49:38;;;;;;;;;6.67;6.33;;;;;;;;3538165;39;113992;-74
2021/06/23 10:52:24;;;;;;;;;10.00;8.67;;;;;;;;3539256;39;113777;-74
2021/06/23 10:54:51;;;;;;;;;8.00;8.00;;;;;;;;3538532;39;112787;-73
2021/06/23 10:57:25;;;;;;;;;7.00;7.00;;;;;;;;3541722;39;113231;-73
2021/06/23 10:59:52;;;;;;;;;7.00;7.00;;;;;;;;3538558;39;112146;-72
2021/06/23 11:02:28;;;;;;;;;7.67;6.00;;;;;;;;3539636;39;113573;-71
2021/06/23 11:05:14;;;;;;;;;9.00;7.00;;;;;;;;3538386;39;114381;-72
2021/06/23 11:07:42;;;;;;;;;7.00;7.00;;;;;;;;3538324;39;111930;-74
2021/06/23 11:10:27;;;;;;;;;8.00;7.67;;;;;;;;3537832;39;113215;-73
2021/06/23 11:12:55;;;;;;;;;5.67;5.00;;;;;;;;3535669;39;113955;-71
2021/06/23 11:15:22;;;;;;;;;6.00;5.00;;;;;;;;3537294;39;111945;-72
2021/06/23 11:17:51;;;;;;;;;5.67;5.67;;;;;;;;3538515;39;113247;-71
2021/06/23 11:20:37;;;;;;;;;8.67;7.33;;;;;;;;3541745;39;113215;-72
2021/06/23 11:23:03;;;;;;;;;5.00;4.33;;;;;;;;3542927;39;113252;-72
2021/06/23 11:25:33;;;;;;;;;7.00;7.00;;;;;;;;3541274;39;113821;-72
2021/06/23 11:28:14;;;;;;;;;6.00;6.00;;;;;;;;3540348;39;111721;-72
2021/06/23 11:31:00;;;;;;;;;9.00;9.00;;;;;;;;3537866;39;113435;-71
2021/06/23 11:33:47;;;;;;;;;12.00;7.00;;;;;;;;3538595;39;114074;-74
2021/06/23 11:36:14;;;;;;;;;7.00;5.67;;;;;;;;3538394;39;111820;-75
2021/06/23 11:38:41;;;;;;;;;8.00;8.00;;;;;;;;3542740;39;113340;-75
2021/06/23 11:41:09;;;;;;;;;7.00;5.67;;;;;;;;3542890;39;113934;-75
2021/06/23 11:43:36;;;;;;;;;8.00;8.00;;;;;;;;3543353;39;113376;-73
2021/06/23 11:46:03;;;;;;;;;7.67;7.00;;;;;;;;3540974;39;113716;-73
2021/06/23 11:48:30;;;;;;;;;16.67;15.33;;;;;;;;3541326;39;112318;-74
2021/06/23 11:50:59;;;;;;;;;9.00;8.00;;;;;;;;3540968;39;113318;-75
2021/06/23 11:53:26;;;;;;;;;20.00;18.00;;;;;;;;3538372;39;113934;-75
2021/06/23 11:55:53;;;;;;;;;8.00;7.67;;;;;;;;3537609;39;111838;-76
2021/06/23 11:58:20;;;;;;;;;6.00;6.00;;;;;;;;3539457;39;113225;-76
2021/06/23 12:00:47;;;;;;;;;8.67;7.00;;;;;;;;3538681;39;114375;-77
2021/06/23 12:03:15;;;;;;;;;5.67;5.33;;;;;;;;3540680;39;111851;-78
2021/06/23 12:05:42;;;;;;;;;10.67;9.00;;;;;;;;3539015;39;113873;-79
2021/06/23 12:08:10;;;;;;;;;8.00;8.00;;;;;;;;3538234;39;111946;-76
2021/06/23 12:10:38;;;;;;;;;8.33;8.33;;;;;;;;3538802;39;113761;-77
2021/06/23 12:13:04;;;;;;;;;11.33;10.67;;;;;;;;3540837;39;113791;-78
2021/06/23 12:15:31;;;;;;;;;9.33;9.00;;;;;;;;3541166;39;112027;-76
2021/06/23 12:17:59;;;;;;;;;9.67;8.00;;;;;;;;3542928;39;112920;-75
2021/06/23 12:20:28;;;;;;;;;7.00;7.00;;;;;;;;3541187;39;113924;-75
2021/06/23 12:22:59;;;;;;;;;8.00;7.00;;;;;;;;3543592;39;111946;-75
2021/06/23 12:25:28;;;;;;;;;8.00;7.00;;;;;;;;3545774;39;113232;-75
2021/06/23 12:27:55;;;;;;;;;9.00;7.00;;;;;;;;3541425;39;112442;-74
2021/06/23 12:30:22;;;;;;;;;8.00;7.00;;;;;;;;3541637;39;113221;-73
2021/06/23 12:32:50;;;;;;;;;9.00;7.00;;;;;;;;3542957;39;114084;-74
2021/06/23 12:35:16;;;;;;;;;10.67;8.00;;;;;;;;3543028;39;112222;-79
2021/06/23 12:37:43;;;;;;;;;13.00;11.67;;;;;;;;3541731;39;113275;-75
2021/06/23 12:40:10;;;;;;;;;15.00;14.33;;;;;;;;3542550;39;113906;-76
2021/06/23 12:42:38;;;;;;;;;18.33;16.00;;;;;;;;3537327;39;112083;-79
2021/06/23 12:45:05;;;;;;;;;14.00;12.67;;;;;;;;3538857;39;113371;-84
2021/06/23 12:47:32;;;;;;;;;15.33;12.00;;;;;;;;3540216;39;114367;-74
2021/06/23 12:49:58;;;;;;;;;12.33;12.33;;;;;;;;3539137;39;114042;-79
2021/06/23 12:52:25;;;;;;;;;10.33;10.33;;;;;;;;3538426;39;113832;-79
2021/06/23 12:54:51;;;;;;;;;16.00;12.00;;;;;;;;3538392;39;112175;-78
2021/06/23 12:57:18;;;;;;;;;12.33;12.00;;;;;;;;3539463;39;113386;-81
2021/06/23 12:59:47;;;;;;;;;11.67;10.00;;;;;;;;3542961;39;114495;-74
2021/06/23 13:02:14;;;;;;;;;15.00;13.67;;;;;;;;3538546;39;112078;-73
2021/06/23 13:04:41;;;;;;;;;7.00;6.00;;;;;;;;3539312;39;113865;-74
2021/06/23 13:07:08;;;;;;;;;6.00;4.67;;;;;;;;3535343;39;113266;-74
2021/06/23 13:09:35;;;;;;;;;6.00;6.00;;;;;;;;3543549;39;111851;-74
2021/06/23 13:12:01;;;;;;;;;8.00;7.67;;;;;;;;3541012;39;113513;-73
2021/06/23 13:14:28;;;;;;;;;8.33;7.67;;;;;;;;3538262;39;111914;-73
2021/06/23 13:16:56;;;;;;;;;10.00;8.67;;;;;;;;3538109;39;113496;-74
2021/06/23 15:37:05;;;;;;;;;3.50;3.50;;;;;;;;3546952;39;1415514;-79
2021/06/23 15:39:32;;;;;;;;;5.00;5.00;;;;;;;;3574051;39;113499;-77
2021/06/23 15:41:58;;;;;;;;;5.00;4.33;;;;;;;;3576171;39;112832;-76
2021/06/23 15:44:25;;;;;;;;;6.00;5.00;;;;;;;;3573771;39;113176;-75
2021/06/23 15:46:52;;;;;;;;;7.00;6.00;;;;;;;;3572806;39;113917;-74
2021/06/23 15:49:19;;;;;;;;;4.67;4.67;;;;;;;;3573985;39;113675;-77
2021/06/23 15:51:45;;;;;;;;;7.00;5.33;;;;;;;;3571320;39;113465;-75
2021/06/23 15:54:13;;;;;;;;;5.67;5.00;;;;;;;;3618480;22;114450;-72
2021/06/23 15:56:40;;;;;;;;;3.00;3.00;;;;;;;;3558856;39;112251;-72
2021/06/23 15:59:07;;;;;;;;;4.00;4.00;;;;;;;;3558639;39;113916;-72
2021/06/23 16:01:34;;;;;;;;;6.00;6.00;;;;;;;;3558581;39;114142;-72
2021/06/23 16:04:00;;;;;;;;;6.33;6.33;;;;;;;;3556740;39;113195;-76
2021/06/23 16:06:27;;;;;;;;;6.67;6.00;;;;;;;;3557746;39;113952;-74
2021/06/23 16:08:54;;;;;;;;;7.67;7.00;;;;;;;;3556544;39;112178;-76
2021/06/23 16:11:22;;;;;;;;;5.33;5.33;;;;;;;;3556149;39;113175;-76
2021/06/23 16:13:48;;;;;;;;;6.00;5.00;;;;;;;;3555998;39;113910;-76
2021/06/23 16:16:16;;;;;;;;;7.67;6.00;;;;;;;;3556199;39;112228;-76
2021/06/23 16:18:43;;;;;;;;;6.33;6.33;;;;;;;;3560570;39;113254;-74
2021/06/23 16:21:11;;;;;;;;;6.00;6.00;;;;;;;;3552601;39;112717;-76
2021/06/23 16:23:39;;;;;;;;;6.67;6.00;;;;;;;;3555432;39;113133;-74
2021/06/23 16:26:06;;;;;;;;;12.00;7.00;;;;;;;;3554499;39;113946;-72
2021/06/23 16:28:33;;;;;;;;;8.00;6.67;;;;;;;;3554089;39;111963;-72
2021/06/23 16:31:00;;;;;;;;;7.33;6.67;;;;;;;;3557154;39;114958;-74
2021/06/23 16:33:27;;;;;;;;;10.33;8.67;;;;;;;;3555297;39;113855;-72
2021/06/23 16:35:53;;;;;;;;;7.00;6.67;;;;;;;;3556197;39;113598;-73
2021/06/23 16:38:21;;;;;;;;;10.00;6.00;;;;;;;;3556256;39;113413;-76
2021/06/23 16:40:48;;;;;;;;;8.00;8.00;;;;;;;;3556390;39;113883;-76
2021/06/23 16:43:14;;;;;;;;;6.67;6.67;;;;;;;;3555212;39;113985;-74
2021/06/23 16:45:42;;;;;;;;;5.00;5.00;;;;;;;;3557156;39;113848;-76
2021/06/23 16:48:09;;;;;;;;;4.00;4.00;;;;;;;;3548466;39;112093;-76
2021/06/23 16:50:37;;;;;;;;;4.67;4.67;;;;;;;;3548846;39;113258;-72
2021/06/23 16:53:04;;;;;;;;;4.33;3.00;;;;;;;;3547730;39;113949;-75
2021/06/23 16:58:15;;;;;;;;;3.67;3.00;;;;;;;;3547376;39;112273;-74
2021/06/23 17:00:43;;;;;;;;;4.67;4.67;;;;;;;;3550646;39;113857;-74
2021/06/23 17:03:10;;;;;;;;;5.33;3.00;;;;;;;;3550968;39;112291;-76
2021/06/23 17:05:37;;;;;;;;;3.67;3.00;;;;;;;;3551170;39;113926;-74
2021/06/23 17:08:03;;;;;;;;;5.67;2.67;;;;;;;;3550184;39;113266;-74
2021/06/23 17:10:30;;;;;;;;;3.00;3.00;;;;;;;;3551545;39;113333;-75
2021/06/23 17:12:57;;;;;;;;;4.00;3.00;;;;;;;;3550983;39;114274;-75
2021/06/23 17:15:23;;;;;;;;;5.67;4.00;;;;;;;;3552204;39;112132;-75
2021/06/23 17:17:51;;;;;;;;;3.00;3.00;;;;;;;;3552359;39;113299;-75
2021/06/23 17:20:18;;;;;;;;;3.00;3.00;;;;;;;;3552026;39;114466;-76
2021/06/23 17:22:44;;;;;;;;;4.00;2.67;;;;;;;;3550019;39;111938;-76
2021/06/23 17:29:06;;;;;;;;;4.00;4.00;;;;;;;;3579671;39;111916;-73
2021/06/23 17:31:33;;;;;;;;;5.00;4.00;;;;;;;;3563817;39;113856;-74
2021/06/23 17:34:00;;;;;;;;;9.67;6.00;;;;;;;;3566636;39;111930;-76
2021/06/23 17:36:27;;;;;;;;;5.00;4.33;;;;;;;;3564271;39;113411;-75
2021/06/23 17:38:55;;;;;;;;;3.00;3.00;;;;;;;;3566212;39;113200;-73
2021/06/23 17:41:22;;;;;;;;;3.00;2.67;;;;;;;;3568022;39;112114;-74
2021/06/23 17:43:48;;;;;;;;;3.67;3.67;;;;;;;;3569293;39;113496;-75
2021/06/23 17:46:16;;;;;;;;;6.00;4.00;;;;;;;;3569527;39;114003;-74
2021/06/23 17:48:43;;;;;;;;;5.67;5.00;;;;;;;;3571986;39;111876;-74
2021/06/23 17:51:10;;;;;;;;;11.33;7.00;;;;;;;;3564467;39;113557;-74
2021/06/23 17:53:37;;;;;;;;;9.67;7.67;;;;;;;;3569646;39;112116;-73
2021/06/23 17:56:05;;;;;;;;;12.33;9.67;;;;;;;;3567898;39;113202;-78
2021/06/23 17:58:33;;;;;;;;;11.33;11.00;;;;;;;;3565703;39;115746;-77
2021/06/23 18:01:03;;;;;;;;;4.33;4.00;;;;;;;;3566464;39;111844;-77
2021/06/23 18:03:31;;;;;;;;;5.00;3.00;;;;;;;;3565990;39;113392;-75
2021/06/23 18:05:58;;;;;;;;;6.00;5.00;;;;;;;;3565670;39;114156;-75
2021/06/23 18:08:25;;;;;;;;;4.33;4.33;;;;;;;;3566463;39;111975;-75
2021/06/23 18:10:52;;;;;;;;;7.33;5.33;;;;;;;;3568216;39;114161;-76
2021/06/23 18:13:19;;;;;;;;;10.33;8.00;;;;;;;;3566814;39;112773;-76
2021/06/23 18:15:45;;;;;;;;;5.33;4.00;;;;;;;;3565429;39;113317;-75
2021/06/23 18:18:12;;;;;;;;;4.67;3.00;;;;;;;;3561293;39;114233;-76
2021/06/23 18:20:42;;;;;;;;;3.00;3.00;;;;;;;;3563478;39;112042;-80
2021/06/23 18:23:09;;;;;;;;;4.00;3.00;;;;;;;;3567457;39;113372;-80
2021/06/23 18:25:36;;;;;;;;;3.67;3.00;;;;;;;;3564941;39;115189;-74
2021/06/23 18:28:03;;;;;;;;;4.00;4.00;;;;;;;;3566644;39;111862;-74
2021/06/23 18:30:32;;;;;;;;;5.33;4.33;;;;;;;;3564675;39;113475;-74
2021/06/23 18:32:58;;;;;;;;;7.00;6.00;;;;;;;;3568099;39;114040;-75
2021/06/23 18:35:25;;;;;;;;;5.00;5.00;;;;;;;;3565310;39;113905;-75
2021/06/23 18:37:53;;;;;;;;;5.67;5.33;;;;;;;;3565532;39;114519;-72
2021/06/23 18:40:20;;;;;;;;;8.00;6.67;;;;;;;;3559955;39;111829;-73
2021/06/23 18:42:46;;;;;;;;;6.00;6.00;;;;;;;;3558611;39;113489;-74
2021/06/23 18:45:14;;;;;;;;;4.33;4.00;;;;;;;;3556591;39;114288;-74
2021/06/23 18:47:40;;;;;;;;;5.67;5.00;;;;;;;;3554387;39;111996;-73
2021/06/23 18:50:08;;;;;;;;;4.00;3.00;;;;;;;;3555165;39;113419;-73
2021/06/23 18:52:36;;;;;;;;;5.67;5.00;;;;;;;;3555551;39;113948;-74
2021/06/23 18:55:04;;;;;;;;;4.33;4.33;;;;;;;;3557903;39;111943;-73
2021/06/23 18:57:31;;;;;;;;;4.33;4.33;;;;;;;;3554561;39;114154;-74
2021/06/23 18:59:58;;;;;;;;;7.00;5.67;;;;;;;;3555105;39;112547;-73
2021/06/23 19:02:24;;;;;;;;;4.00;4.00;;;;;;;;3555670;39;113117;-74
2021/06/23 19:04:52;;;;;;;;;4.00;4.00;;;;;;;;3555036;39;114109;-74
2021/06/23 19:07:19;;;;;;;;;6.00;5.00;;;;;;;;3557284;39;112311;-74
2021/06/23 19:09:45;;;;;;;;;4.00;4.00;;;;;;;;3560445;39;113343;-75
2021/06/23 19:12:13;;;;;;;;;2.33;2.33;;;;;;;;3555903;39;114252;-74
2021/06/23 19:14:41;;;;;;;;;7.33;7.33;;;;;;;;3559949;39;111925;-76
2021/06/23 19:17:08;;;;;;;;;8.33;6.67;;;;;;;;3560479;39;113215;-75
2021/06/23 19:19:34;;;;;;;;;6.00;6.00;;;;;;;;3559679;39;111816;-76
2021/06/23 19:22:01;;;;;;;;;5.00;5.00;;;;;;;;3556786;39;113142;-75
2021/06/23 19:24:27;;;;;;;;;8.00;5.67;;;;;;;;3558582;39;113872;-75
2021/06/23 19:26:54;;;;;;;;;8.33;7.33;;;;;;;;3559252;39;111930;-75
2021/06/23 19:29:22;;;;;;;;;6.67;6.67;;;;;;;;3556563;39;113688;-76
2021/06/23 19:31:48;;;;;;;;;6.00;6.00;;;;;;;;3554392;39;114319;-76
2021/06/23 19:34:15;;;;;;;;;6.00;6.00;;;;;;;;3553572;39;112298;-78
2021/06/23 19:36:41;;;;;;;;;6.00;6.00;;;;;;;;3554537;39;113733;-75
2021/06/23 19:39:08;;;;;;;;;4.00;4.00;;;;;;;;3557189;39;111998;-72
2021/06/23 19:41:35;;;;;;;;;5.33;4.33;;;;;;;;3555211;39;114366;-72
2021/06/23 19:44:01;;;;;;;;;7.00;5.00;;;;;;;;3554159;39;113887;-71
2021/06/23 19:46:29;;;;;;;;;8.00;6.00;;;;;;;;3554801;39;112004;-74
2021/06/23 19:48:56;;;;;;;;;5.00;4.00;;;;;;;;3555111;39;113424;-74
2021/06/23 19:51:23;;;;;;;;;4.67;3.33;;;;;;;;3554083;39;113973;-72
2021/06/23 19:53:49;;;;;;;;;4.67;4.00;;;;;;;;3559364;39;111816;-73
2021/06/23 19:56:16;;;;;;;;;4.33;4.33;;;;;;;;3557891;39;113426;-74
2021/06/23 19:58:45;;;;;;;;;5.00;4.67;;;;;;;;3561857;39;114573;-74
2021/06/23 20:01:12;;;;;;;;;4.00;4.00;;;;;;;;3556565;39;113728;-73
2021/06/23 20:03:41;;;;;;;;;6.33;5.00;;;;;;;;3557550;39;113900;-74
2021/06/23 20:06:07;;;;;;;;;3.00;2.67;;;;;;;;3559383;39;111980;-74
2021/06/23 20:08:34;;;;;;;;;4.00;3.67;;;;;;;;3558268;39;113429;-74
2021/06/23 20:11:01;;;;;;;;;4.00;2.00;;;;;;;;3558475;39;113971;-74
2021/06/23 20:13:27;;;;;;;;;6.00;4.00;;;;;;;;3558747;39;112022;-72
2021/06/23 20:15:54;;;;;;;;;5.00;5.00;;;;;;;;3558235;39;113841;-73
2021/06/23 20:18:21;;;;;;;;;6.33;4.67;;;;;;;;3558796;39;113864;-73
2021/06/23 20:20:49;;;;;;;;;5.33;5.33;;;;;;;;3560672;39;111811;-75
2021/06/23 20:23:15;;;;;;;;;9.00;8.00;;;;;;;;3559014;39;113971;-76
2021/06/23 20:25:42;;;;;;;;;6.67;6.67;;;;;;;;3557798;39;111840;-76
2021/06/23 20:28:09;;;;;;;;;7.33;6.33;;;;;;;;3559743;39;113383;-76
2021/06/23 20:30:38;;;;;;;;;5.00;5.00;;;;;;;;3557659;39;113952;-76
2021/06/23 20:33:05;;;;;;;;;5.33;5.33;;;;;;;;3556055;39;112123;-74
2021/06/23 20:35:32;;;;;;;;;6.00;5.00;;;;;;;;3557747;39;113724;-76
2021/06/23 20:38:00;;;;;;;;;4.00;4.00;;;;;;;;3558478;39;113809;-75
2021/06/23 20:40:27;;;;;;;;;4.00;3.00;;;;;;;;3558738;39;112489;-74
2021/06/23 20:42:54;;;;;;;;;6.00;4.00;;;;;;;;3555529;39;113186;-75
2021/06/23 20:45:21;;;;;;;;;4.67;4.00;;;;;;;;3558815;39;111831;-74
2021/06/23 20:47:48;;;;;;;;;5.00;5.00;;;;;;;;3557699;39;113396;-74
2021/06/23 20:50:14;;;;;;;;;6.00;6.00;;;;;;;;3555992;39;113959;-74
2021/06/23 20:52:42;;;;;;;;;4.00;4.00;;;;;;;;3552283;39;111916;-73
2021/06/23 20:55:12;;;;;;;;;8.33;5.67;;;;;;;;3555371;39;113261;-74
2021/06/23 20:57:39;;;;;;;;;7.00;5.00;;;;;;;;3559184;39;114366;-75
2021/06/23 21:00:07;;;;;;;;;8.00;6.00;;;;;;;;3557449;39;112306;-74
2021/06/23 21:02:34;;;;;;;;;8.00;7.00;;;;;;;;3558852;39;113350;-74
2021/06/23 21:05:01;;;;;;;;;5.33;5.33;;;;;;;;3560523;39;113847;-75
2021/06/23 21:07:31;;;;;;;;;5.67;5.33;;;;;;;;3558613;39;113380;-75
2021/06/23 21:10:08;;;;;;;;;6.00;6.00;;;;;;;;3557868;39;113837;-74
2021/06/23 21:12:53;;;;;;;;;5.00;5.00;;;;;;;;3559229;39;112023;-76
2021/06/23 21:15:20;;;;;;;;;5.33;4.67;;;;;;;;3556508;39;113571;-74
2021/06/23 21:18:03;;;;;;;;;4.67;4.67;;;;;;;;3558787;39;113900;-73
2021/06/23 21:20:29;;;;;;;;;6.67;5.67;;;;;;;;3557719;39;112342;-70
2021/06/23 21:23:06;;;;;;;;;6.00;4.00;;;;;;;;3557439;39;113267;-74
2021/06/23 21:25:33;;;;;;;;;5.00;5.00;;;;;;;;3558131;39;114452;-73
2021/06/23 21:28:01;;;;;;;;;4.67;4.33;;;;;;;;3558808;39;113641;-73
2021/06/23 21:30:28;;;;;;;;;6.00;6.00;;;;;;;;3557868;39;114029;-73
2021/06/23 21:32:54;;;;;;;;;8.33;6.33;;;;;;;;3555592;39;112135;-74
2021/06/23 21:35:21;;;;;;;;;5.00;4.00;;;;;;;;3557936;39;113375;-74
2021/06/23 21:37:48;;;;;;;;;7.00;5.00;;;;;;;;3558447;39;113906;-74
2021/06/23 21:40:16;;;;;;;;;6.00;4.00;;;;;;;;3557327;39;111948;-73
2021/06/23 21:42:57;;;;;;;;;5.00;5.00;;;;;;;;3559257;39;113405;-73
2021/06/23 21:45:25;;;;;;;;;6.00;4.00;;;;;;;;3556244;39;114285;-73
2021/06/23 21:47:52;;;;;;;;;5.00;4.00;;;;;;;;3560968;39;111994;-73
2021/06/23 21:50:18;;;;;;;;;4.00;4.00;;;;;;;;3557222;39;113852;-74
2021/06/23 21:52:45;;;;;;;;;4.33;4.00;;;;;;;;3558721;39;111944;-77
2021/06/23 21:55:12;;;;;;;;;7.67;4.00;;;;;;;;3557658;39;113372;-75
2021/06/23 21:57:39;;;;;;;;;4.33;4.33;;;;;;;;3553597;39;114316;-75
2021/06/23 22:00:14;;;;;;;;;5.00;5.00;;;;;;;;3557218;39;111935;-75
2021/06/23 22:02:43;;;;;;;;;5.00;5.00;;;;;;;;3552772;39;112301;-75
2021/06/23 22:05:10;;;;;;;;;7.67;7.00;;;;;;;;3555957;39;114209;-75
2021/06/23 22:07:38;;;;;;;;;3.67;3.00;;;;;;;;3558214;39;112778;-75
2021/06/23 22:10:07;;;;;;;;;4.00;4.00;;;;;;;;3559521;39;113656;-75
2021/06/23 22:12:34;;;;;;;;;6.00;6.00;;;;;;;;3558463;39;112127;-77
2021/06/23 22:15:01;;;;;;;;;7.00;5.67;;;;;;;;3558582;39;113548;-75
2021/06/23 22:17:29;;;;;;;;;6.00;6.00;;;;;;;;3558826;39;113972;-75
2021/06/23 22:19:57;;;;;;;;;5.33;5.33;;;;;;;;3559588;39;111747;-75
2021/06/23 22:22:24;;;;;;;;;6.33;5.33;;;;;;;;3556493;39;113925;-75
2021/06/23 22:24:52;;;;;;;;;6.00;5.00;;;;;;;;3558438;39;113834;-74
2021/06/23 22:27:19;;;;;;;;;7.00;6.00;;;;;;;;3559825;39;111900;-73
2021/06/23 22:29:46;;;;;;;;;6.00;5.33;;;;;;;;3558626;39;113353;-74
2021/06/23 22:32:13;;;;;;;;;8.67;6.00;;;;;;;;3562377;39;114100;-76
2021/06/23 22:34:41;;;;;;;;;7.00;7.00;;;;;;;;3556917;39;113207;-85
2021/06/23 22:37:11;;;;;;;;;6.33;5.67;;;;;;;;3559728;39;114934;-76
2021/06/23 22:39:39;;;;;;;;;6.67;6.67;;;;;;;;3558570;39;112102;-76
2021/06/23 22:42:11;;;;;;;;;11.33;7.00;;;;;;;;3560808;39;113258;-76
2021/06/23 22:44:45;;;;;;;;;6.67;6.00;;;;;;;;3559924;39;113923;-77
2021/06/23 22:47:19;;;;;;;;;9.00;6.33;;;;;;;;3556569;39;112202;-75
2021/06/23 22:49:52;;;;;;;;;5.67;5.33;;;;;;;;3557219;39;113192;-77
2021/06/23 22:52:25;;;;;;;;;6.00;6.00;;;;;;;;3559392;39;113869;-77
2021/06/23 22:54:59;;;;;;;;;8.67;6.00;;;;;;;;3561835;39;112421;-76
2021/06/23 22:57:26;;;;;;;;;7.00;6.00;;;;;;;;3559049;39;114462;-75
2021/06/23 22:59:52;;;;;;;;;5.00;5.00;;;;;;;;3559190;39;112280;-78
2021/06/23 23:02:23;;;;;;;;;5.33;5.33;;;;;;;;3559756;39;113753;-77
2021/06/23 23:04:49;;;;;;;;;6.00;5.33;;;;;;;;3556188;39;113249;-79
2021/06/23 23:07:17;;;;;;;;;4.67;4.67;;;;;;;;3559981;39;113131;-78
2021/06/23 23:09:45;;;;;;;;;6.00;6.00;;;;;;;;3558739;39;113348;-80
2021/06/23 23:12:11;;;;;;;;;6.00;5.00;;;;;;;;3558053;39;113870;-79
2021/06/23 23:14:39;;;;;;;;;6.00;6.00;;;;;;;;3554020;39;111934;-78
2021/06/23 23:17:06;;;;;;;;;9.33;6.00;;;;;;;;3560721;39;113328;-77
2021/06/23 23:19:33;;;;;;;;;6.67;6.00;;;;;;;;3558526;39;113015;-77
2021/06/23 23:22:00;;;;;;;;;6.00;5.00;;;;;;;;3559367;39;113055;-77
2021/06/23 23:24:28;;;;;;;;;7.00;6.00;;;;;;;;3558775;39;114184;-77
2021/06/23 23:26:57;;;;;;;;;7.00;6.00;;;;;;;;3558891;39;112166;-78
2021/06/23 23:29:24;;;;;;;;;5.00;5.00;;;;;;;;3556676;39;113095;-76
2021/06/23 23:31:50;;;;;;;;;8.00;7.00;;;;;;;;3558960;39;114135;-76
2021/06/23 23:34:17;;;;;;;;;6.00;5.67;;;;;;;;3558660;39;111695;-77
2021/06/23 23:36:44;;;;;;;;;6.00;6.00;;;;;;;;3559965;39;113464;-77
2021/06/23 23:39:11;;;;;;;;;7.33;7.00;;;;;;;;3560424;39;113831;-78
2021/06/23 23:41:38;;;;;;;;;6.00;6.00;;;;;;;;3556131;39;113483;-78
2021/06/23 23:44:06;;;;;;;;;7.33;6.33;;;;;;;;3559337;39;115031;-78
2021/06/23 23:46:32;;;;;;;;;6.00;5.33;;;;;;;;3558061;39;113598;-77
2021/06/23 23:48:59;;;;;;;;;6.67;5.00;;;;;;;;3558702;39;113346;-77
2021/06/23 23:51:26;;;;;;;;;7.67;6.33;;;;;;;;3558827;39;114144;-77
2021/06/23 23:53:52;;;;;;;;;7.00;6.00;;;;;;;;3558995;39;111917;-77
2021/06/23 23:56:19;;;;;;;;;7.67;5.33;;;;;;;;3558285;39;113270;-78
2021/06/23 23:58:46;;;;;;;;;9.00;7.00;;;;;;;;3560619;39;113812;-78
